createdAt,value
2022-12-28T00:01:31.182Z,75.70
2022-12-28T00:04:05.229Z,75.49
2022-12-28T00:06:34.370Z,75.39
2022-12-28T00:09:02.614Z,75.38
2022-12-28T00:11:30.737Z,75.52
2022-12-28T00:14:01.606Z,75.53
2022-12-28T00:16:36.869Z,75.55
2022-12-28T00:19:16.010Z,75.71
2022-12-28T00:21:46.984Z,75.63
2022-12-28T00:24:25.224Z,75.40
2022-12-28T00:26:52.961Z,75.31
2022-12-28T00:29:20.042Z,75.38
2022-12-28T00:31:47.015Z,75.16
2022-12-28T00:34:14.432Z,75.70
2022-12-28T00:37:09.109Z,75.40
2022-12-28T00:39:28.216Z,75.26
2022-12-28T00:41:55.030Z,74.54
2022-12-28T00:44:21.840Z,74.57
2022-12-28T00:46:48.606Z,74.84
2022-12-28T00:49:15.403Z,74.52
2022-12-28T00:51:42.220Z,74.29
2022-12-28T00:54:09.154Z,74.49
2022-12-28T00:56:35.961Z,74.78
2022-12-28T00:59:02.793Z,74.94
2022-12-28T01:01:30.278Z,75.24
2022-12-28T01:03:59.036Z,75.71
2022-12-28T01:06:28.628Z,75.65
2022-12-28T01:08:55.649Z,75.97
2022-12-28T01:11:29.084Z,76.08
2022-12-28T01:14:00.330Z,76.03
2022-12-28T01:16:32.715Z,76.10
2022-12-28T01:19:04.616Z,76.03
2022-12-28T01:21:33.662Z,76.16
2022-12-28T01:24:04.272Z,75.87
2022-12-28T01:26:31.507Z,75.53
2022-12-28T01:28:58.876Z,75.57
2022-12-28T01:31:26.391Z,75.37
2022-12-28T01:33:54.023Z,75.67
2022-12-28T01:36:24.337Z,75.52
2022-12-28T01:38:57.805Z,75.05
2022-12-28T01:41:27.690Z,75.29
2022-12-28T01:43:54.326Z,75.26
2022-12-28T01:46:31.015Z,75.18
2022-12-28T01:49:18.164Z,75.77
2022-12-28T01:51:59.077Z,75.88
2022-12-28T01:54:31.557Z,75.32
2022-12-28T01:56:58.981Z,75.13
2022-12-28T01:59:30.820Z,75.20
2022-12-28T02:01:58.144Z,75.57
2022-12-28T02:04:26.679Z,75.59
2022-12-28T02:06:54.922Z,75.81
2022-12-28T02:09:30.007Z,75.90
2022-12-28T02:11:57.898Z,75.60
2022-12-28T02:14:24.741Z,75.34
2022-12-28T02:16:53.487Z,75.33
2022-12-28T02:19:43.424Z,75.41
2022-12-28T02:22:34.092Z,75.49
2022-12-28T02:25:25.552Z,75.36
2022-12-28T02:28:23.193Z,76.46
2022-12-28T02:31:03.279Z,76.74
2022-12-28T02:33:44.399Z,76.76
2022-12-28T02:36:28.384Z,76.63
2022-12-28T02:39:02.987Z,77.06
2022-12-28T02:41:32.188Z,77.13
2022-12-28T02:44:00.352Z,77.14
2022-12-28T02:46:49.049Z,76.92
2022-12-28T02:49:44.008Z,77.04
2022-12-28T02:52:44.451Z,76.96
2022-12-28T02:55:56.507Z,76.89
2022-12-28T02:59:03.191Z,76.44
2022-12-28T03:01:54.257Z,76.40
2022-12-28T03:04:51.595Z,76.17
2022-12-28T03:08:09.309Z,76.14
2022-12-28T03:10:52.981Z,76.49
2022-12-28T03:13:44.288Z,76.24
2022-12-28T03:16:54.664Z,76.34
2022-12-28T03:19:46.729Z,76.29
2022-12-28T03:22:33.417Z,76.46
2022-12-28T03:25:25.848Z,76.55
2022-12-28T03:28:12.180Z,76.63
2022-12-28T03:31:02.205Z,76.43
2022-12-28T03:33:29.403Z,76.59
2022-12-28T03:36:28.805Z,76.67
2022-12-28T03:39:06.248Z,76.44
2022-12-28T03:41:43.063Z,76.55
2022-12-28T03:44:32.878Z,76.60
2022-12-28T03:47:12.921Z,76.07
2022-12-28T03:49:40.422Z,75.95
2022-12-28T03:52:09.431Z,76.28
2022-12-28T03:54:36.291Z,76.12
2022-12-28T03:57:03.096Z,75.74
2022-12-28T03:59:29.873Z,76.04
2022-12-28T04:01:56.807Z,76.29
2022-12-28T04:04:23.675Z,76.43
2022-12-28T04:06:50.482Z,76.38
2022-12-28T04:09:17.275Z,76.39
2022-12-28T04:11:44.256Z,76.71
2022-12-28T04:14:11.465Z,76.36
2022-12-28T04:16:38.356Z,76.58
2022-12-28T04:19:05.310Z,76.57
2022-12-28T04:21:32.222Z,76.40
2022-12-28T04:23:59.017Z,76.55
2022-12-28T04:26:25.865Z,76.47
2022-12-28T04:28:52.925Z,76.84
2022-12-28T04:31:19.819Z,76.88
2022-12-28T04:33:46.591Z,76.80
2022-12-28T04:36:16.027Z,77.00
2022-12-28T04:38:43.251Z,77.18
2022-12-28T04:41:11.239Z,76.90
2022-12-28T04:43:39.837Z,76.90
2022-12-28T04:46:11.637Z,76.67
2022-12-28T04:48:38.499Z,76.67
2022-12-28T04:51:19.778Z,76.04
2022-12-28T04:53:47.174Z,76.17
2022-12-28T04:56:15.510Z,75.73
2022-12-28T04:58:42.858Z,75.66
2022-12-28T05:01:15.842Z,75.71
2022-12-28T05:03:50.919Z,75.73
2022-12-28T05:06:23.800Z,75.93
2022-12-28T05:08:51.293Z,75.87
2022-12-28T05:11:21.734Z,76.05
2022-12-28T05:13:49.059Z,76.03
2022-12-28T05:16:19.830Z,76.07
2022-12-28T05:18:46.717Z,76.34
2022-12-28T05:21:20.556Z,76.36
2022-12-28T05:23:48.899Z,76.37
2022-12-28T05:26:19.751Z,76.30
2022-12-28T05:28:47.060Z,76.04
2022-12-28T05:31:19.664Z,75.87
2022-12-28T05:33:47.492Z,76.09
2022-12-28T05:36:18.102Z,76.26
2022-12-28T05:38:45.506Z,76.46
2022-12-28T05:41:21.721Z,76.21
2022-12-28T05:43:49.329Z,76.38
2022-12-28T05:46:21.077Z,76.55
2022-12-28T05:48:48.758Z,76.49
2022-12-28T05:51:18.732Z,76.53
2022-12-28T05:53:46.401Z,76.86
2022-12-28T05:56:20.398Z,76.93
2022-12-28T05:58:53.405Z,76.89
2022-12-28T06:01:23.541Z,76.79
2022-12-28T06:04:00.146Z,77.14
2022-12-28T06:06:28.253Z,77.10
2022-12-28T06:08:55.437Z,76.90
2022-12-28T06:11:25.078Z,76.69
2022-12-28T06:13:52.924Z,76.18
2022-12-28T06:16:28.641Z,76.28
2022-12-28T06:18:55.777Z,76.03
2022-12-28T06:21:26.388Z,76.34
2022-12-28T06:23:57.660Z,76.40
2022-12-28T06:26:25.817Z,76.83
2022-12-28T06:28:52.633Z,76.69
2022-12-28T06:31:26.338Z,76.27
2022-12-28T06:33:56.078Z,76.07
2022-12-28T06:36:32.741Z,76.34
2022-12-28T06:39:02.121Z,76.05
2022-12-28T06:41:29.771Z,76.42
2022-12-28T06:43:57.913Z,76.02
2022-12-28T06:46:27.152Z,75.89
2022-12-28T06:48:54.417Z,75.77
2022-12-28T06:51:42.061Z,75.56
2022-12-28T06:54:10.105Z,75.73
2022-12-28T06:56:37.729Z,75.79
2022-12-28T06:59:05.083Z,75.92
2022-12-28T07:01:36.029Z,76.06
2022-12-28T07:04:05.025Z,76.25
2022-12-28T07:06:37.780Z,76.50
2022-12-28T07:09:08.884Z,76.32
2022-12-28T07:11:36.804Z,75.93
2022-12-28T07:14:04.105Z,76.18
2022-12-28T07:18:59.917Z,75.96
2022-12-28T07:21:35.320Z,75.97
2022-12-28T07:24:03.656Z,76.06
2022-12-28T07:26:33.069Z,76.35
2022-12-28T07:29:02.721Z,75.80
2022-12-28T07:31:38.359Z,76.06
2022-12-28T07:34:08.741Z,76.07
2022-12-28T07:36:35.584Z,76.88
2022-12-28T07:39:02.420Z,76.93
2022-12-28T07:41:33.271Z,76.67
2022-12-28T07:44:01.099Z,77.54
2022-12-28T07:46:32.076Z,77.08
2022-12-28T07:48:58.964Z,76.23
2022-12-28T07:51:37.936Z,75.97
2022-12-28T07:54:05.379Z,75.62
2022-12-28T07:59:05.344Z,75.54
2022-12-28T08:01:35.555Z,75.60
2022-12-28T08:04:09.023Z,75.16
2022-12-28T08:06:39.629Z,75.49
2022-12-28T08:09:08.954Z,75.22
2022-12-28T08:11:39.216Z,75.30
2022-12-28T08:14:07.240Z,75.58
2022-12-28T08:16:41.051Z,75.77
2022-12-28T08:19:09.073Z,75.29
2022-12-28T08:21:42.392Z,75.42
2022-12-28T08:24:14.423Z,75.46
2022-12-28T08:26:41.428Z,75.21
2022-12-28T08:29:13.514Z,74.35
2022-12-28T08:31:43.476Z,73.92
2022-12-28T08:34:16.616Z,73.63
2022-12-28T08:36:43.417Z,72.82
2022-12-28T08:39:10.563Z,72.58
2022-12-28T08:41:37.448Z,73.29
2022-12-28T08:44:04.860Z,73.54
2022-12-28T08:46:34.452Z,73.57
2022-12-28T08:49:02.411Z,73.56
2022-12-28T08:51:41.625Z,73.19
2022-12-28T08:54:09.875Z,72.58
2022-12-28T08:56:39.212Z,73.30
2022-12-28T08:59:06.582Z,72.48
2022-12-28T09:01:43.839Z,72.74
2022-12-28T09:04:21.466Z,71.96
2022-12-28T09:06:49.732Z,71.63
2022-12-28T09:09:19.442Z,70.05
2022-12-28T09:11:46.670Z,70.59
2022-12-28T09:14:22.073Z,70.79
2022-12-28T09:16:49.937Z,69.14
2022-12-28T09:19:16.986Z,69.42
2022-12-28T09:21:45.264Z,69.18
2022-12-28T09:24:13.714Z,69.48
2022-12-28T09:26:40.923Z,68.80
2022-12-28T09:29:11.700Z,70.15
2022-12-28T09:31:40.223Z,69.43
2022-12-28T09:36:59.617Z,68.73
2022-12-28T09:39:26.576Z,68.38
2022-12-28T09:42:07.185Z,69.14
2022-12-28T09:45:06.528Z,66.06
2022-12-28T09:47:47.472Z,65.96
2022-12-28T09:50:17.265Z,66.04
2022-12-28T09:53:11.468Z,65.54
2022-12-28T09:55:40.581Z,66.16
2022-12-28T09:58:15.494Z,64.20
2022-12-28T10:00:49.780Z,63.10
2022-12-28T10:03:24.629Z,63.13
2022-12-28T10:05:52.268Z,62.89
2022-12-28T10:08:21.761Z,62.19
2022-12-28T10:10:51.183Z,60.85
2022-12-28T10:16:19.594Z,55.21
2022-12-28T10:18:48.063Z,52.15
2022-12-28T10:21:18.609Z,54.02
2022-12-28T10:24:12.458Z,53.29
2022-12-28T10:26:35.734Z,52.91
2022-12-28T10:29:02.563Z,52.18
2022-12-28T10:31:40.413Z,52.66
2022-12-28T10:34:23.161Z,52.29
2022-12-28T10:36:51.051Z,52.71
2022-12-28T10:39:25.387Z,53.87
2022-12-28T10:41:52.926Z,55.10
2022-12-28T10:44:39.435Z,54.02
2022-12-28T10:47:23.023Z,54.14
2022-12-28T10:50:18.485Z,54.40
2022-12-28T10:52:39.193Z,53.86
2022-12-28T10:55:27.886Z,54.14
2022-12-28T11:00:44.591Z,52.82
2022-12-28T11:03:22.225Z,51.03
2022-12-28T11:05:57.336Z,49.97
2022-12-28T11:08:24.442Z,49.51
2022-12-28T11:10:57.657Z,46.96
2022-12-28T11:13:24.593Z,44.73
2022-12-28T11:15:51.936Z,42.86
2022-12-28T11:18:20.645Z,41.74
2022-12-28T11:20:53.417Z,39.58
2022-12-28T11:23:26.030Z,38.91
2022-12-28T11:25:52.882Z,37.68
2022-12-28T11:28:22.500Z,38.29
2022-12-28T11:30:52.292Z,38.95
2022-12-28T11:33:44.568Z,37.94
2022-12-28T11:36:21.433Z,38.55
2022-12-28T11:38:51.801Z,36.88
2022-12-28T11:41:27.718Z,36.60
2022-12-28T11:44:04.439Z,37.33
2022-12-28T11:46:31.131Z,35.36
2022-12-28T11:49:03.617Z,34.59
2022-12-28T11:51:34.237Z,35.87
2022-12-28T11:54:37.467Z,35.14
2022-12-28T11:57:04.432Z,34.23
2022-12-28T11:59:34.705Z,33.72
2022-12-28T12:02:27.450Z,35.32
2022-12-28T12:04:54.223Z,37.26
2022-12-28T12:07:30.629Z,36.63
2022-12-28T12:10:28.715Z,34.84
2022-12-28T12:12:56.023Z,35.50
2022-12-28T12:15:40.408Z,37.14
2022-12-28T12:18:18.938Z,36.55
2022-12-28T12:21:05.391Z,37.28
2022-12-28T12:23:46.909Z,36.18
2022-12-28T12:26:33.922Z,38.50
2022-12-28T12:29:24.613Z,36.11
2022-12-28T12:32:11.478Z,35.61
2022-12-28T12:34:54.213Z,35.42
2022-12-28T12:37:37.960Z,37.96
2022-12-28T12:40:10.634Z,38.09
2022-12-28T12:43:07.510Z,37.72
2022-12-28T12:46:13.593Z,39.26
2022-12-28T12:49:07.292Z,39.26
2022-12-28T12:51:56.220Z,40.02
2022-12-28T12:54:56.234Z,41.15
2022-12-28T12:57:39.802Z,43.28
2022-12-28T13:00:22.439Z,43.08
2022-12-28T13:03:17.030Z,44.56
2022-12-28T13:05:52.689Z,45.20
2022-12-28T13:08:38.935Z,46.53
2022-12-28T13:11:10.059Z,46.71
2022-12-28T13:13:41.253Z,47.30
2022-12-28T13:16:14.947Z,47.64
2022-12-28T13:19:04.582Z,47.79
2022-12-28T13:21:49.287Z,48.92
2022-12-28T13:24:45.739Z,48.46
2022-12-28T13:27:20.345Z,48.32
2022-12-28T13:29:54.596Z,46.77
2022-12-28T13:32:38.414Z,47.30
2022-12-28T13:35:29.433Z,45.80
2022-12-28T13:38:09.806Z,46.57
2022-12-28T13:40:39.408Z,47.27
2022-12-28T13:43:52.198Z,48.17
2022-12-28T13:46:21.385Z,48.47
2022-12-28T13:48:52.483Z,48.61
2022-12-28T13:51:21.504Z,48.95
2022-12-28T13:53:55.846Z,50.00
2022-12-28T13:56:23.517Z,49.80
2022-12-28T13:58:56.293Z,50.80
2022-12-28T14:01:29.543Z,50.64
2022-12-28T14:04:42.481Z,50.59
2022-12-28T14:06:55.039Z,51.32
2022-12-28T14:09:22.627Z,51.11
2022-12-28T14:11:50.464Z,50.76
2022-12-28T14:14:18.343Z,52.00
2022-12-28T14:16:46.492Z,51.45
2022-12-28T14:19:13.525Z,52.01
2022-12-28T14:21:46.011Z,52.44
2022-12-28T14:24:16.542Z,51.98
2022-12-28T14:26:59.060Z,52.78
2022-12-28T14:29:36.290Z,52.55
2022-12-28T14:32:06.424Z,52.51
2022-12-28T14:34:38.882Z,52.11
2022-12-28T14:37:09.745Z,51.31
2022-12-28T14:39:43.909Z,51.43
2022-12-28T14:42:26.285Z,50.98
2022-12-28T14:47:45.195Z,52.20
2022-12-28T14:50:28.856Z,53.34
2022-12-28T14:53:18.363Z,53.05
2022-12-28T14:56:06.756Z,53.06
2022-12-28T14:59:00.783Z,53.25
2022-12-28T15:00:25.233Z,51.36
2022-12-28T15:01:48.454Z,53.52
2022-12-28T15:04:37.117Z,53.70
2022-12-28T15:07:06.769Z,53.97
2022-12-28T15:09:34.315Z,54.25
2022-12-28T15:12:27.371Z,54.27
2022-12-28T15:14:54.199Z,54.79
2022-12-28T15:17:20.973Z,55.73
2022-12-28T15:19:49.089Z,55.82
2022-12-28T15:22:16.309Z,55.94
2022-12-28T15:24:48.761Z,56.45
2022-12-28T15:27:16.485Z,56.91
2022-12-28T15:32:30.625Z,58.72
2022-12-28T15:34:57.388Z,60.43
2022-12-28T15:37:24.746Z,60.45
2022-12-28T15:39:51.635Z,59.46
2022-12-28T15:42:18.473Z,59.25
2022-12-28T15:44:48.425Z,58.82
2022-12-28T15:47:15.216Z,58.97
2022-12-28T15:49:42.026Z,60.21
2022-12-28T15:52:08.864Z,61.02
2022-12-28T15:54:35.750Z,61.67
2022-12-28T15:57:02.523Z,62.11
2022-12-28T15:59:29.440Z,62.62
2022-12-28T16:01:56.596Z,62.83
2022-12-28T16:04:23.448Z,62.69
2022-12-28T16:06:51.152Z,62.48
2022-12-28T16:09:19.017Z,62.37
2022-12-28T16:11:51.509Z,62.84
2022-12-28T16:14:21.627Z,62.43
2022-12-28T16:16:48.446Z,62.37
2022-12-28T16:19:16.359Z,62.71
2022-12-28T16:21:43.783Z,63.26
2022-12-28T16:24:11.468Z,64.06
2022-12-28T16:26:39.056Z,64.18
2022-12-28T16:29:05.937Z,64.28
2022-12-28T16:31:36.456Z,64.44
2022-12-28T16:34:06.035Z,64.31
2022-12-28T16:36:34.401Z,64.17
2022-12-28T16:39:05.278Z,64.05
2022-12-28T16:41:36.543Z,64.39
2022-12-28T16:44:07.921Z,64.18
2022-12-28T16:46:35.198Z,64.26
2022-12-28T16:49:02.984Z,64.21
2022-12-28T16:51:30.983Z,64.44
2022-12-28T16:53:58.172Z,64.53
2022-12-28T16:56:26.098Z,64.66
2022-12-28T16:58:57.953Z,64.58
2022-12-28T17:01:25.410Z,64.84
2022-12-28T17:03:54.527Z,65.23
2022-12-28T17:06:23.347Z,65.02
2022-12-28T17:08:50.196Z,65.10
2022-12-28T17:11:18.109Z,65.08
2022-12-28T17:13:45.622Z,64.86
2022-12-28T17:16:13.669Z,65.12
2022-12-28T17:18:40.505Z,65.19
2022-12-28T17:21:10.590Z,64.79
2022-12-28T17:23:40.649Z,66.22
2022-12-28T17:26:08.365Z,65.88
2022-12-28T17:28:36.524Z,66.34
2022-12-28T17:31:14.534Z,65.79
2022-12-28T17:33:47.408Z,65.78
2022-12-28T17:36:14.525Z,65.83
2022-12-28T17:38:42.138Z,66.20
2022-12-28T17:41:14.150Z,65.81
2022-12-28T17:43:47.720Z,66.04
2022-12-28T17:46:15.840Z,65.79
2022-12-28T17:48:43.089Z,65.24
2022-12-28T17:51:11.590Z,64.72
2022-12-28T17:53:39.809Z,64.69
2022-12-28T17:56:12.621Z,64.57
2022-12-28T17:58:41.408Z,64.62
2022-12-28T18:01:09.143Z,65.04
2022-12-28T18:03:37.556Z,65.01
2022-12-28T18:06:04.765Z,64.88
2022-12-28T18:08:32.679Z,64.66
2022-12-28T18:10:59.601Z,65.25
2022-12-28T18:13:26.413Z,65.00
2022-12-28T18:15:53.722Z,64.77
2022-12-28T18:18:20.544Z,64.66
2022-12-28T18:21:01.320Z,64.59
2022-12-28T18:23:28.779Z,64.95
2022-12-28T18:26:10.082Z,64.95
2022-12-28T18:28:37.133Z,65.10
2022-12-28T18:31:05.249Z,65.23
2022-12-28T18:33:34.352Z,65.38
2022-12-28T18:36:08.634Z,65.62
2022-12-28T18:38:40.180Z,65.54
2022-12-28T18:41:07.121Z,65.61
2022-12-28T18:43:33.948Z,65.78
2022-12-28T18:46:04.208Z,66.25
2022-12-28T18:48:34.997Z,66.26
2022-12-28T18:51:12.440Z,66.26
2022-12-28T18:53:40.379Z,66.32
2022-12-28T18:56:17.939Z,66.58
2022-12-28T18:58:50.414Z,66.20
2022-12-28T19:04:09.923Z,66.37
2022-12-28T19:06:37.945Z,65.90
2022-12-28T19:09:07.216Z,65.70
2022-12-28T19:11:35.086Z,65.73
2022-12-28T19:14:11.347Z,65.59
2022-12-28T19:16:38.573Z,65.61
2022-12-28T19:19:05.492Z,65.42
2022-12-28T19:21:33.941Z,65.78
2022-12-28T19:24:06.636Z,65.49
2022-12-28T19:26:35.121Z,65.85
2022-12-28T19:29:05.910Z,65.52
2022-12-28T19:31:34.515Z,64.81
2022-12-28T19:34:01.317Z,64.11
2022-12-28T19:36:28.244Z,64.35
2022-12-28T19:38:56.731Z,64.17
2022-12-28T19:41:24.378Z,64.03
2022-12-28T19:43:51.701Z,64.34
2022-12-28T19:46:30.707Z,64.51
2022-12-28T19:49:00.183Z,64.21
2022-12-28T19:51:30.718Z,64.17
2022-12-28T19:54:00.040Z,63.95
2022-12-28T19:56:26.896Z,64.03
2022-12-28T19:59:01.185Z,63.62
2022-12-28T20:01:32.486Z,63.95
2022-12-28T20:04:00.054Z,63.40
2022-12-28T20:06:29.559Z,63.66
2022-12-28T20:09:01.124Z,64.06
2022-12-28T20:11:29.463Z,64.16
2022-12-28T20:14:02.470Z,64.16
2022-12-28T20:16:33.126Z,64.27
2022-12-28T20:19:06.734Z,64.13
2022-12-28T20:21:34.127Z,64.16
2022-12-28T20:24:01.659Z,63.89
2022-12-28T20:26:29.327Z,63.41
2022-12-28T20:29:03.427Z,63.90
2022-12-28T20:31:30.892Z,64.15
2022-12-28T20:33:58.152Z,64.56
2022-12-28T20:36:28.182Z,65.12
2022-12-28T20:38:55.944Z,65.90
2022-12-28T20:41:49.328Z,65.96
2022-12-28T20:44:32.321Z,65.89
2022-12-28T20:47:01.543Z,65.72
2022-12-28T20:49:29.625Z,65.54
2022-12-28T20:51:56.562Z,65.59
2022-12-28T20:54:24.091Z,65.68
2022-12-28T20:56:55.324Z,65.92
2022-12-28T20:59:25.274Z,65.92
2022-12-28T21:01:53.127Z,65.73
2022-12-28T21:04:20.728Z,65.84
2022-12-28T21:06:47.607Z,65.86
2022-12-28T21:09:14.592Z,65.95
2022-12-28T21:11:41.467Z,66.17
2022-12-28T21:14:08.338Z,66.12
2022-12-28T21:16:35.265Z,66.13
2022-12-28T21:19:02.116Z,66.44
2022-12-28T21:21:28.878Z,66.19
2022-12-28T21:23:55.773Z,65.76
2022-12-28T21:26:22.632Z,68.37
2022-12-28T21:28:49.719Z,67.37
2022-12-28T21:31:16.694Z,67.19
2022-12-28T21:33:43.607Z,67.29
2022-12-28T21:36:14.499Z,66.90
2022-12-28T21:38:43.341Z,66.74
2022-12-28T21:41:37.526Z,66.88
2022-12-28T21:44:09.729Z,66.78
2022-12-28T21:46:36.562Z,66.64
2022-12-28T21:49:04.600Z,66.65
2022-12-28T21:51:31.894Z,66.63
2022-12-28T21:54:06.543Z,66.91
2022-12-28T21:56:35.145Z,66.71
2022-12-28T21:59:03.026Z,66.81
2022-12-28T22:01:49.305Z,67.12
2022-12-28T22:04:38.502Z,66.83
2022-12-28T22:07:07.615Z,67.07
2022-12-28T22:09:53.908Z,67.11
2022-12-28T22:12:39.473Z,66.98
2022-12-28T22:15:25.456Z,67.29
2022-12-28T22:17:58.499Z,66.99
2022-12-28T22:20:27.923Z,66.98
2022-12-28T22:22:57.630Z,66.90
2022-12-28T22:25:25.246Z,67.57
2022-12-28T22:27:52.088Z,67.65
2022-12-28T22:30:19.016Z,67.74
2022-12-28T22:32:46.057Z,67.19
2022-12-28T22:35:13.116Z,67.33
2022-12-28T22:37:40.937Z,67.78
2022-12-28T22:40:08.813Z,67.24
2022-12-28T22:42:38.027Z,67.14
2022-12-28T22:45:05.273Z,67.32
2022-12-28T22:47:32.059Z,67.35
2022-12-28T22:49:58.870Z,66.93
2022-12-28T22:52:25.628Z,66.90
2022-12-28T22:54:52.444Z,66.93
2022-12-28T22:57:19.293Z,66.87
2022-12-28T22:59:46.064Z,66.95
2022-12-28T23:02:13.081Z,66.88
2022-12-28T23:04:40.229Z,66.90
2022-12-28T23:07:07.124Z,67.15
2022-12-28T23:09:34.020Z,66.99
2022-12-28T23:12:00.952Z,67.46
2022-12-28T23:14:46.137Z,67.28
2022-12-28T23:17:15.605Z,67.28
2022-12-28T23:20:03.075Z,67.35
2022-12-28T23:23:12.482Z,67.26
2022-12-28T23:25:59.369Z,67.27
2022-12-28T23:28:26.864Z,67.40
2022-12-28T23:30:53.895Z,67.30
2022-12-28T23:33:20.756Z,67.42
2022-12-28T23:35:48.560Z,67.45
2022-12-28T23:38:15.360Z,67.59
2022-12-28T23:40:42.334Z,67.26
2022-12-28T23:43:09.416Z,67.37
2022-12-28T23:45:36.468Z,67.34
2022-12-28T23:48:04.571Z,67.47
2022-12-28T23:50:31.488Z,67.36
2022-12-28T23:52:58.241Z,67.59
2022-12-28T23:55:25.112Z,67.64
2022-12-28T23:57:51.947Z,67.40
